Pagina principale
METAR-TAF:

METAR-TAF

Aeroporti :

Clyde, Nunavut, Canada

latitudine: 70-29N, longitudine: 068-31W, altezza: 25 m

Osservazione

Il bollettino è stato emesso 1 ora e 8 minuti fa, alle 05:00 UTC
Vento 15 kt da nord-ovest
Temperature -8°C
Umidità 73%
Pressione 1032 hPa
Visibilità: 14.5 km
Cielo sereno

METAR: CYCY 190500Z AUTO 32015KT 9SM CLR M08/M12 A3048 RMK SLP326

Ora: 02:08 (06:08 UTC)

Previsione

Il bollettino è stato emesso 5 ore e 28 minuti fa, alle 00:40 UTC
Previsione valida dal 19 alle 01 UTC al 19 alle 13 UTC
Vento 10 kt da nord-ovest
Visibilità: 10 km
Poco nuvoloso ad un'altezza di 7000 ft
Nubi sparse ad un'altezza di 23000 ft
Evoluzione graduale
dal 19 alle 08 UTC al 19 alle 10 UTC
Vento 15 kt da nord-ovest

TAF: CYCY 190040Z 1901/1913 31010KT P6SM FEW070 SCT230 BECMG 1908/1910 32015KT RMK FCST BASED ON AUTO OBS. NXT FCST BY 190700Z

Osservazioni e previsioni meteorologiche di più di 4000 aeroporti (messaggi METAR e TAF).

Le stazioni disponibili sono rappresentate dai dischi gialli e rossi sulla carta.

Puntare il mouse per vedere il nome della stazione.

Clicca sopra per visualizzare le osservazioni e previsioni meteorologiche.

Per cambiare la mappa : fare clic sui pulsanti verdi con una croce nera per ingrandire, il pulsante verde con un trattino per diminuire, o sulla freccia verde per le mappe adiacenti.


METAR-TAF: